KUL weather

Kuala Lumpur International Airport
Kuala Lumpur, Wilayah Persekutuan Kuala Lumpur, Malaysia

Public forecast

Using degrees Celsius for public forecast. Weather courtesy of forecast.io.

Current aviation weather report (METAR) for Kuala Lumpur International Airport

Retrieved 2019/11/20 13:30 UTC (0 seconds ago):

WMKK 201330Z 03006KT 360V070 9999 FEW017CB 27/24 Q1010 NOSIG

Aviation forecast (TAF) for Kuala Lumpur International Airport

Retrieved 2019/11/20 12:09 UTC (1 hour ago):

TAF WMKK 201100Z 2012/2118 VRB02KT 9999 FEW017CB BECMG 2016/2018 05005KT FEW005 FEW017CB PROB30 TEMPO 2107/2111 22010KT 4000 TSRA FEW010 FEW016CB SCT018